sensor_id;sensor_type;location;lat;lon;timestamp;temperature;humidity
4647;DHT22;2336;47.822;7.564;2023-02-22T00:01:41;3.90;99.90
4647;DHT22;2336;47.822;7.564;2023-02-22T00:04:15;3.90;99.90
4647;DHT22;2336;47.822;7.564;2023-02-22T00:06:45;3.80;99.90
4647;DHT22;2336;47.822;7.564;2023-02-22T00:09:12;3.70;99.90
4647;DHT22;2336;47.822;7.564;2023-02-22T00:11:46;3.70;99.90
4647;DHT22;2336;47.822;7.564;2023-02-22T00:14:12;3.50;99.90
4647;DHT22;2336;47.822;7.564;2023-02-22T00:16:39;3.40;99.90
4647;DHT22;2336;47.822;7.564;2023-02-22T00:19:06;3.20;99.90
4647;DHT22;2336;47.822;7.564;2023-02-22T00:21:33;3.10;99.90
4647;DHT22;2336;47.822;7.564;2023-02-22T00:23:59;3.10;99.90
4647;DHT22;2336;47.822;7.564;2023-02-22T00:26:41;3.00;99.90
4647;DHT22;2336;47.822;7.564;2023-02-22T00:29:09;3.00;99.90
4647;DHT22;2336;47.822;7.564;2023-02-22T00:31:36;2.90;99.90
4647;DHT22;2336;47.822;7.564;2023-02-22T00:34:03;2.90;99.90
4647;DHT22;2336;47.822;7.564;2023-02-22T00:36:30;2.80;99.90
4647;DHT22;2336;47.822;7.564;2023-02-22T00:38:57;2.80;99.90
4647;DHT22;2336;47.822;7.564;2023-02-22T00:41:23;2.70;99.90
4647;DHT22;2336;47.822;7.564;2023-02-22T00:43:50;2.60;99.90
4647;DHT22;2336;47.822;7.564;2023-02-22T00:46:18;2.60;99.90
4647;DHT22;2336;47.822;7.564;2023-02-22T00:48:45;2.60;99.90
4647;DHT22;2336;47.822;7.564;2023-02-22T00:51:11;2.50;99.90
4647;DHT22;2336;47.822;7.564;2023-02-22T00:53:38;2.50;99.90
4647;DHT22;2336;47.822;7.564;2023-02-22T00:56:06;2.40;99.90
4647;DHT22;2336;47.822;7.564;2023-02-22T00:58:32;2.40;99.90
4647;DHT22;2336;47.822;7.564;2023-02-22T01:00:59;2.30;99.90
4647;DHT22;2336;47.822;7.564;2023-02-22T01:03:27;2.30;99.90
4647;DHT22;2336;47.822;7.564;2023-02-22T01:05:56;2.20;99.90
4647;DHT22;2336;47.822;7.564;2023-02-22T01:08:23;2.20;99.90
4647;DHT22;2336;47.822;7.564;2023-02-22T01:10:50;2.10;99.90
4647;DHT22;2336;47.822;7.564;2023-02-22T01:13:17;2.10;99.90
4647;DHT22;2336;47.822;7.564;2023-02-22T01:15:45;2.10;99.90
4647;DHT22;2336;47.822;7.564;2023-02-22T01:18:11;2.10;99.90
4647;DHT22;2336;47.822;7.564;2023-02-22T01:20:43;2.10;99.90
4647;DHT22;2336;47.822;7.564;2023-02-22T01:23:12;2.20;99.90
4647;DHT22;2336;47.822;7.564;2023-02-22T01:25:41;2.30;99.90
4647;DHT22;2336;47.822;7.564;2023-02-22T01:28:09;2.40;99.90
4647;DHT22;2336;47.822;7.564;2023-02-22T01:30:36;2.50;99.90
4647;DHT22;2336;47.822;7.564;2023-02-22T01:33:04;2.50;99.90
4647;DHT22;2336;47.822;7.564;2023-02-22T01:35:33;2.60;99.90
4647;DHT22;2336;47.822;7.564;2023-02-22T01:38:02;2.60;99.90
4647;DHT22;2336;47.822;7.564;2023-02-22T01:40:31;2.80;99.90
4647;DHT22;2336;47.822;7.564;2023-02-22T01:42:59;3.00;99.90
4647;DHT22;2336;47.822;7.564;2023-02-22T01:45:54;3.10;99.90
4647;DHT22;2336;47.822;7.564;2023-02-22T01:48:29;3.40;99.90
4647;DHT22;2336;47.822;7.564;2023-02-22T01:50:58;3.50;99.90
4647;DHT22;2336;47.822;7.564;2023-02-22T01:53:31;3.60;99.90
4647;DHT22;2336;47.822;7.564;2023-02-22T01:56:00;3.70;99.90
4647;DHT22;2336;47.822;7.564;2023-02-22T01:58:29;3.80;99.90
4647;DHT22;2336;47.822;7.564;2023-02-22T02:00:58;3.80;99.90
4647;DHT22;2336;47.822;7.564;2023-02-22T02:03:28;3.90;99.90
4647;DHT22;2336;47.822;7.564;2023-02-22T02:05:58;3.90;99.90
4647;DHT22;2336;47.822;7.564;2023-02-22T02:08:32;3.90;99.90
4647;DHT22;2336;47.822;7.564;2023-02-22T02:11:03;3.90;99.90
4647;DHT22;2336;47.822;7.564;2023-02-22T02:13:29;3.90;99.90
4647;DHT22;2336;47.822;7.564;2023-02-22T02:15:56;4.00;99.90
4647;DHT22;2336;47.822;7.564;2023-02-22T02:18:24;4.00;99.90
4647;DHT22;2336;47.822;7.564;2023-02-22T02:21:03;4.00;99.90
4647;DHT22;2336;47.822;7.564;2023-02-22T02:23:55;4.00;99.90
4647;DHT22;2336;47.822;7.564;2023-02-22T02:27:07;4.00;99.90
4647;DHT22;2336;47.822;7.564;2023-02-22T02:30:18;4.00;99.90
4647;DHT22;2336;47.822;7.564;2023-02-22T02:32:56;4.00;99.90
4647;DHT22;2336;47.822;7.564;2023-02-22T02:35:34;3.90;99.90
4647;DHT22;2336;47.822;7.564;2023-02-22T02:38:10;3.90;99.90
4647;DHT22;2336;47.822;7.564;2023-02-22T02:40:45;4.00;99.90
4647;DHT22;2336;47.822;7.564;2023-02-22T02:43:18;3.90;99.90
4647;DHT22;2336;47.822;7.564;2023-02-22T02:45:50;3.90;99.90
4647;DHT22;2336;47.822;7.564;2023-02-22T02:48:24;3.80;99.90
4647;DHT22;2336;47.822;7.564;2023-02-22T02:50:54;3.80;99.90
4647;DHT22;2336;47.822;7.564;2023-02-22T02:53:26;3.80;99.90
4647;DHT22;2336;47.822;7.564;2023-02-22T02:55:57;3.80;99.90
4647;DHT22;2336;47.822;7.564;2023-02-22T02:58:24;3.90;99.90
4647;DHT22;2336;47.822;7.564;2023-02-22T03:00:53;3.90;99.90
4647;DHT22;2336;47.822;7.564;2023-02-22T03:03:46;4.00;99.90
4647;DHT22;2336;47.822;7.564;2023-02-22T03:09:36;3.90;99.90
4647;DHT22;2336;47.822;7.564;2023-02-22T03:12:16;3.90;99.90
4647;DHT22;2336;47.822;7.564;2023-02-22T03:14:52;3.90;99.90
4647;DHT22;2336;47.822;7.564;2023-02-22T03:17:34;3.80;99.90
4647;DHT22;2336;47.822;7.564;2023-02-22T03:20:11;3.80;99.90
4647;DHT22;2336;47.822;7.564;2023-02-22T03:22:44;3.80;99.90
4647;DHT22;2336;47.822;7.564;2023-02-22T03:25:16;3.80;99.90
4647;DHT22;2336;47.822;7.564;2023-02-22T03:27:48;3.80;99.90
4647;DHT22;2336;47.822;7.564;2023-02-22T03:30:21;3.80;99.90
4647;DHT22;2336;47.822;7.564;2023-02-22T03:32:53;3.70;99.90
4647;DHT22;2336;47.822;7.564;2023-02-22T03:35:25;3.70;99.90
4647;DHT22;2336;47.822;7.564;2023-02-22T03:37:57;3.70;99.90
4647;DHT22;2336;47.822;7.564;2023-02-22T03:40:28;3.60;99.90
4647;DHT22;2336;47.822;7.564;2023-02-22T03:42:59;3.50;99.90
4647;DHT22;2336;47.822;7.564;2023-02-22T03:45:28;3.30;99.90
4647;DHT22;2336;47.822;7.564;2023-02-22T03:48:02;3.30;99.90
4647;DHT22;2336;47.822;7.564;2023-02-22T03:50:35;3.20;99.90
4647;DHT22;2336;47.822;7.564;2023-02-22T03:53:02;3.10;99.90
4647;DHT22;2336;47.822;7.564;2023-02-22T03:55:29;3.00;99.90
4647;DHT22;2336;47.822;7.564;2023-02-22T03:57:58;3.00;99.90
4647;DHT22;2336;47.822;7.564;2023-02-22T04:00:28;3.00;99.90
4647;DHT22;2336;47.822;7.564;2023-02-22T04:02:55;3.00;99.90
4647;DHT22;2336;47.822;7.564;2023-02-22T04:05:22;3.10;99.90
4647;DHT22;2336;47.822;7.564;2023-02-22T04:07:50;3.30;99.90
4647;DHT22;2336;47.822;7.564;2023-02-22T04:10:17;3.40;99.90
4647;DHT22;2336;47.822;7.564;2023-02-22T04:12:44;3.40;99.90
4647;DHT22;2336;47.822;7.564;2023-02-22T04:15:13;3.40;99.90
4647;DHT22;2336;47.822;7.564;2023-02-22T04:17:41;3.40;99.90
4647;DHT22;2336;47.822;7.564;2023-02-22T04:20:08;3.40;99.90
4647;DHT22;2336;47.822;7.564;2023-02-22T04:22:36;3.50;99.90
4647;DHT22;2336;47.822;7.564;2023-02-22T04:25:05;3.50;99.90
4647;DHT22;2336;47.822;7.564;2023-02-22T04:27:32;3.50;99.90
4647;DHT22;2336;47.822;7.564;2023-02-22T04:29:58;3.50;99.90
4647;DHT22;2336;47.822;7.564;2023-02-22T04:32:25;3.50;99.90
4647;DHT22;2336;47.822;7.564;2023-02-22T04:34:52;3.60;99.90
4647;DHT22;2336;47.822;7.564;2023-02-22T04:37:18;3.60;99.90
4647;DHT22;2336;47.822;7.564;2023-02-22T04:39:45;3.60;99.90
4647;DHT22;2336;47.822;7.564;2023-02-22T04:42:13;3.60;99.90
4647;DHT22;2336;47.822;7.564;2023-02-22T04:44:40;3.60;99.90
4647;DHT22;2336;47.822;7.564;2023-02-22T04:47:06;3.60;99.90
4647;DHT22;2336;47.822;7.564;2023-02-22T04:49:33;3.60;99.90
4647;DHT22;2336;47.822;7.564;2023-02-22T04:52:00;3.60;99.90
4647;DHT22;2336;47.822;7.564;2023-02-22T04:54:26;3.60;99.90
4647;DHT22;2336;47.822;7.564;2023-02-22T04:56:53;3.60;99.90
4647;DHT22;2336;47.822;7.564;2023-02-22T04:59:21;3.60;99.90
4647;DHT22;2336;47.822;7.564;2023-02-22T05:01:48;3.60;99.90
4647;DHT22;2336;47.822;7.564;2023-02-22T05:04:15;3.60;99.90
4647;DHT22;2336;47.822;7.564;2023-02-22T05:06:41;3.60;99.90
4647;DHT22;2336;47.822;7.564;2023-02-22T05:09:08;3.60;99.90
4647;DHT22;2336;47.822;7.564;2023-02-22T05:11:35;3.60;99.90
4647;DHT22;2336;47.822;7.564;2023-02-22T05:14:01;3.60;99.90
4647;DHT22;2336;47.822;7.564;2023-02-22T05:16:29;3.60;99.90
4647;DHT22;2336;47.822;7.564;2023-02-22T05:18:56;3.60;99.90
4647;DHT22;2336;47.822;7.564;2023-02-22T05:21:23;3.60;99.90
4647;DHT22;2336;47.822;7.564;2023-02-22T05:23:50;3.60;99.90
4647;DHT22;2336;47.822;7.564;2023-02-22T05:26:17;3.60;99.90
4647;DHT22;2336;47.822;7.564;2023-02-22T05:28:44;3.60;99.90
4647;DHT22;2336;47.822;7.564;2023-02-22T05:31:10;3.60;99.90
4647;DHT22;2336;47.822;7.564;2023-02-22T05:33:39;3.60;99.90
4647;DHT22;2336;47.822;7.564;2023-02-22T05:36:07;3.60;99.90
4647;DHT22;2336;47.822;7.564;2023-02-22T05:38:35;3.70;99.90
4647;DHT22;2336;47.822;7.564;2023-02-22T05:41:08;3.70;99.90
4647;DHT22;2336;47.822;7.564;2023-02-22T05:43:35;3.70;99.90
4647;DHT22;2336;47.822;7.564;2023-02-22T05:46:02;3.70;99.90
4647;DHT22;2336;47.822;7.564;2023-02-22T05:48:29;3.70;99.90
4647;DHT22;2336;47.822;7.564;2023-02-22T05:50:57;3.70;99.90
4647;DHT22;2336;47.822;7.564;2023-02-22T05:53:24;3.70;99.90
4647;DHT22;2336;47.822;7.564;2023-02-22T05:55:52;3.70;99.90
4647;DHT22;2336;47.822;7.564;2023-02-22T05:58:19;3.70;99.90
4647;DHT22;2336;47.822;7.564;2023-02-22T06:00:45;3.70;99.90
4647;DHT22;2336;47.822;7.564;2023-02-22T06:03:12;3.70;99.90
4647;DHT22;2336;47.822;7.564;2023-02-22T06:05:39;3.80;99.90
4647;DHT22;2336;47.822;7.564;2023-02-22T06:08:08;3.80;99.90
4647;DHT22;2336;47.822;7.564;2023-02-22T06:10:35;3.80;99.90
4647;DHT22;2336;47.822;7.564;2023-02-22T06:13:02;3.90;99.90
4647;DHT22;2336;47.822;7.564;2023-02-22T06:15:29;4.00;99.90
4647;DHT22;2336;47.822;7.564;2023-02-22T06:17:57;4.00;99.90
4647;DHT22;2336;47.822;7.564;2023-02-22T06:20:25;4.10;99.90
4647;DHT22;2336;47.822;7.564;2023-02-22T06:22:54;4.10;99.90
4647;DHT22;2336;47.822;7.564;2023-02-22T06:25:23;4.20;99.90
4647;DHT22;2336;47.822;7.564;2023-02-22T06:27:51;4.20;99.90
4647;DHT22;2336;47.822;7.564;2023-02-22T06:30:19;4.20;99.90
4647;DHT22;2336;47.822;7.564;2023-02-22T06:32:46;4.30;99.90
4647;DHT22;2336;47.822;7.564;2023-02-22T06:35:14;4.20;99.90
4647;DHT22;2336;47.822;7.564;2023-02-22T06:37:41;4.20;99.90
4647;DHT22;2336;47.822;7.564;2023-02-22T06:40:08;4.20;99.90
4647;DHT22;2336;47.822;7.564;2023-02-22T06:42:37;4.20;99.90
4647;DHT22;2336;47.822;7.564;2023-02-22T06:45:04;4.10;99.90
4647;DHT22;2336;47.822;7.564;2023-02-22T06:47:31;4.20;99.90
4647;DHT22;2336;47.822;7.564;2023-02-22T06:49:58;4.20;99.90
4647;DHT22;2336;47.822;7.564;2023-02-22T06:52:25;4.30;99.90
4647;DHT22;2336;47.822;7.564;2023-02-22T06:54:52;4.40;99.90
4647;DHT22;2336;47.822;7.564;2023-02-22T06:57:19;4.50;99.90
4647;DHT22;2336;47.822;7.564;2023-02-22T06:59:47;4.60;99.90
4647;DHT22;2336;47.822;7.564;2023-02-22T07:02:14;4.60;99.90
4647;DHT22;2336;47.822;7.564;2023-02-22T07:04:41;4.70;99.90
4647;DHT22;2336;47.822;7.564;2023-02-22T07:07:07;4.80;99.90
4647;DHT22;2336;47.822;7.564;2023-02-22T07:09:34;4.90;99.90
4647;DHT22;2336;47.822;7.564;2023-02-22T07:12:01;5.00;99.90
4647;DHT22;2336;47.822;7.564;2023-02-22T07:14:27;5.10;99.90
4647;DHT22;2336;47.822;7.564;2023-02-22T07:16:55;5.10;99.90
4647;DHT22;2336;47.822;7.564;2023-02-22T07:19:22;5.10;99.90
4647;DHT22;2336;47.822;7.564;2023-02-22T07:21:50;5.10;99.90
4647;DHT22;2336;47.822;7.564;2023-02-22T07:24:23;5.10;99.90
4647;DHT22;2336;47.822;7.564;2023-02-22T07:26:51;5.10;99.90
4647;DHT22;2336;47.822;7.564;2023-02-22T07:29:18;5.10;99.90
4647;DHT22;2336;47.822;7.564;2023-02-22T07:31:47;5.20;99.90
4647;DHT22;2336;47.822;7.564;2023-02-22T07:34:15;5.20;99.90
4647;DHT22;2336;47.822;7.564;2023-02-22T07:36:41;5.20;99.90
4647;DHT22;2336;47.822;7.564;2023-02-22T07:39:08;5.30;99.90
4647;DHT22;2336;47.822;7.564;2023-02-22T07:41:35;5.30;99.90
4647;DHT22;2336;47.822;7.564;2023-02-22T07:44:02;5.40;99.90
4647;DHT22;2336;47.822;7.564;2023-02-22T07:46:29;5.50;99.90
4647;DHT22;2336;47.822;7.564;2023-02-22T07:48:56;5.60;99.90
4647;DHT22;2336;47.822;7.564;2023-02-22T07:51:24;5.70;99.90
4647;DHT22;2336;47.822;7.564;2023-02-22T07:53:51;5.70;99.90
4647;DHT22;2336;47.822;7.564;2023-02-22T07:56:18;5.80;99.90
4647;DHT22;2336;47.822;7.564;2023-02-22T07:58:45;5.90;99.90
4647;DHT22;2336;47.822;7.564;2023-02-22T08:01:11;6.00;99.90
4647;DHT22;2336;47.822;7.564;2023-02-22T08:03:38;6.00;99.90
4647;DHT22;2336;47.822;7.564;2023-02-22T08:06:06;6.10;99.90
4647;DHT22;2336;47.822;7.564;2023-02-22T08:08:34;6.10;99.90
4647;DHT22;2336;47.822;7.564;2023-02-22T08:11:01;6.20;99.90
4647;DHT22;2336;47.822;7.564;2023-02-22T08:13:28;6.40;99.90
4647;DHT22;2336;47.822;7.564;2023-02-22T08:15:54;6.40;99.90
4647;DHT22;2336;47.822;7.564;2023-02-22T08:18:22;6.50;99.90
4647;DHT22;2336;47.822;7.564;2023-02-22T08:20:51;6.60;99.90
4647;DHT22;2336;47.822;7.564;2023-02-22T08:23:20;6.70;99.90
4647;DHT22;2336;47.822;7.564;2023-02-22T08:25:49;6.80;99.90
4647;DHT22;2336;47.822;7.564;2023-02-22T08:28:18;7.00;99.90
4647;DHT22;2336;47.822;7.564;2023-02-22T08:30:46;7.10;99.90
4647;DHT22;2336;47.822;7.564;2023-02-22T08:33:14;7.40;99.90
4647;DHT22;2336;47.822;7.564;2023-02-22T08:35:44;7.60;99.90
4647;DHT22;2336;47.822;7.564;2023-02-22T08:38:17;7.80;99.90
4647;DHT22;2336;47.822;7.564;2023-02-22T08:40:44;8.10;99.90
4647;DHT22;2336;47.822;7.564;2023-02-22T08:43:14;8.40;99.90
4647;DHT22;2336;47.822;7.564;2023-02-22T08:45:41;8.50;99.90
4647;DHT22;2336;47.822;7.564;2023-02-22T08:48:08;8.60;99.90
4647;DHT22;2336;47.822;7.564;2023-02-22T08:50:35;8.80;99.90
4647;DHT22;2336;47.822;7.564;2023-02-22T08:53:04;9.00;99.90
4647;DHT22;2336;47.822;7.564;2023-02-22T08:55:34;9.10;99.90
4647;DHT22;2336;47.822;7.564;2023-02-22T08:58:02;9.30;99.90
4647;DHT22;2336;47.822;7.564;2023-02-22T09:00:31;9.40;99.90
4647;DHT22;2336;47.822;7.564;2023-02-22T09:02:58;9.60;99.90
4647;DHT22;2336;47.822;7.564;2023-02-22T09:05:25;9.70;99.90
4647;DHT22;2336;47.822;7.564;2023-02-22T09:07:52;9.90;99.90
4647;DHT22;2336;47.822;7.564;2023-02-22T09:10:22;10.10;99.90
4647;DHT22;2336;47.822;7.564;2023-02-22T09:12:49;10.30;99.90
4647;DHT22;2336;47.822;7.564;2023-02-22T09:15:17;10.30;99.90
4647;DHT22;2336;47.822;7.564;2023-02-22T09:17:45;10.50;99.90
4647;DHT22;2336;47.822;7.564;2023-02-22T09:20:13;10.50;99.90
4647;DHT22;2336;47.822;7.564;2023-02-22T09:22:39;10.70;99.90
4647;DHT22;2336;47.822;7.564;2023-02-22T09:25:06;10.70;99.90
4647;DHT22;2336;47.822;7.564;2023-02-22T09:27:33;10.60;99.90
4647;DHT22;2336;47.822;7.564;2023-02-22T09:30:00;10.70;99.90
4647;DHT22;2336;47.822;7.564;2023-02-22T09:32:27;10.90;99.90
4647;DHT22;2336;47.822;7.564;2023-02-22T09:34:55;11.00;99.90
4647;DHT22;2336;47.822;7.564;2023-02-22T09:37:22;11.10;99.90
4647;DHT22;2336;47.822;7.564;2023-02-22T09:39:49;11.20;99.90
4647;DHT22;2336;47.822;7.564;2023-02-22T09:42:23;11.30;99.90
4647;DHT22;2336;47.822;7.564;2023-02-22T09:44:58;11.40;99.90
4647;DHT22;2336;47.822;7.564;2023-02-22T09:47:35;11.60;99.90
4647;DHT22;2336;47.822;7.564;2023-02-22T09:50:07;11.70;99.90
4647;DHT22;2336;47.822;7.564;2023-02-22T09:52:46;11.80;99.90
4647;DHT22;2336;47.822;7.564;2023-02-22T09:55:26;11.90;99.90
4647;DHT22;2336;47.822;7.564;2023-02-22T09:57:56;12.00;99.90
4647;DHT22;2336;47.822;7.564;2023-02-22T10:00:28;12.10;99.90
4647;DHT22;2336;47.822;7.564;2023-02-22T10:03:07;12.00;99.90
4647;DHT22;2336;47.822;7.564;2023-02-22T10:05:40;12.10;99.90
4647;DHT22;2336;47.822;7.564;2023-02-22T10:08:11;12.00;99.90
4647;DHT22;2336;47.822;7.564;2023-02-22T10:10:40;11.90;99.90
4647;DHT22;2336;47.822;7.564;2023-02-22T10:13:21;12.00;99.90
4647;DHT22;2336;47.822;7.564;2023-02-22T10:15:53;11.80;99.90
4647;DHT22;2336;47.822;7.564;2023-02-22T10:18:48;11.90;99.90
4647;DHT22;2336;47.822;7.564;2023-02-22T10:21:34;11.90;99.90
4647;DHT22;2336;47.822;7.564;2023-02-22T10:24:13;11.90;99.90
4647;DHT22;2336;47.822;7.564;2023-02-22T10:26:44;11.90;99.90
4647;DHT22;2336;47.822;7.564;2023-02-22T10:29:16;12.00;99.90
4647;DHT22;2336;47.822;7.564;2023-02-22T10:31:50;12.10;99.90
4647;DHT22;2336;47.822;7.564;2023-02-22T10:34:22;12.10;99.90
4647;DHT22;2336;47.822;7.564;2023-02-22T10:36:56;12.10;99.90
4647;DHT22;2336;47.822;7.564;2023-02-22T10:39:27;12.20;99.90
4647;DHT22;2336;47.822;7.564;2023-02-22T10:41:57;12.40;99.90
4647;DHT22;2336;47.822;7.564;2023-02-22T10:44:30;12.40;99.90
4647;DHT22;2336;47.822;7.564;2023-02-22T10:46:58;12.60;99.90
4647;DHT22;2336;47.822;7.564;2023-02-22T10:49:29;12.50;99.90
4647;DHT22;2336;47.822;7.564;2023-02-22T10:52:02;12.60;99.90
4647;DHT22;2336;47.822;7.564;2023-02-22T10:54:32;12.70;99.90
4647;DHT22;2336;47.822;7.564;2023-02-22T10:57:00;12.80;99.90
4647;DHT22;2336;47.822;7.564;2023-02-22T10:59:31;12.80;99.90
4647;DHT22;2336;47.822;7.564;2023-02-22T11:01:59;12.90;99.90
4647;DHT22;2336;47.822;7.564;2023-02-22T11:04:26;13.00;99.90
4647;DHT22;2336;47.822;7.564;2023-02-22T11:07:20;13.00;99.90
4647;DHT22;2336;47.822;7.564;2023-02-22T11:09:49;13.20;99.90
4647;DHT22;2336;47.822;7.564;2023-02-22T11:12:19;13.10;99.90
4647;DHT22;2336;47.822;7.564;2023-02-22T11:14:46;13.30;99.90
4647;DHT22;2336;47.822;7.564;2023-02-22T11:17:18;13.40;99.90
4647;DHT22;2336;47.822;7.564;2023-02-22T11:19:48;13.60;99.90
4647;DHT22;2336;47.822;7.564;2023-02-22T11:22:21;13.70;99.90
4647;DHT22;2336;47.822;7.564;2023-02-22T11:24:52;13.70;99.90
4647;DHT22;2336;47.822;7.564;2023-02-22T11:27:27;13.70;99.90
4647;DHT22;2336;47.822;7.564;2023-02-22T11:30:18;13.80;99.90
4647;DHT22;2336;47.822;7.564;2023-02-22T11:32:49;13.90;99.90
4647;DHT22;2336;47.822;7.564;2023-02-22T11:35:37;14.00;99.90
4647;DHT22;2336;47.822;7.564;2023-02-22T11:38:16;14.10;99.90
4647;DHT22;2336;47.822;7.564;2023-02-22T11:40:43;14.20;99.90
4647;DHT22;2336;47.822;7.564;2023-02-22T11:43:14;14.20;99.90
4647;DHT22;2336;47.822;7.564;2023-02-22T11:45:56;14.30;99.90
4647;DHT22;2336;47.822;7.564;2023-02-22T11:48:26;14.30;99.90
4647;DHT22;2336;47.822;7.564;2023-02-22T11:51:02;14.00;99.90
4647;DHT22;2336;47.822;7.564;2023-02-22T11:53:53;13.70;99.90
4647;DHT22;2336;47.822;7.564;2023-02-22T11:56:27;13.80;99.90
4647;DHT22;2336;47.822;7.564;2023-02-22T11:59:02;13.90;99.90
4647;DHT22;2336;47.822;7.564;2023-02-22T12:01:37;13.90;99.90
4647;DHT22;2336;47.822;7.564;2023-02-22T12:04:40;13.80;99.90
4647;DHT22;2336;47.822;7.564;2023-02-22T12:07:22;13.80;99.90
4647;DHT22;2336;47.822;7.564;2023-02-22T12:09:56;13.70;99.90
4647;DHT22;2336;47.822;7.564;2023-02-22T12:12:31;13.60;99.90
4647;DHT22;2336;47.822;7.564;2023-02-22T12:15:04;13.60;99.90
4647;DHT22;2336;47.822;7.564;2023-02-22T12:17:45;13.70;99.90
4647;DHT22;2336;47.822;7.564;2023-02-22T12:20:17;13.80;99.90
4647;DHT22;2336;47.822;7.564;2023-02-22T12:22:59;13.80;99.90
4647;DHT22;2336;47.822;7.564;2023-02-22T12:25:33;13.80;99.90
4647;DHT22;2336;47.822;7.564;2023-02-22T12:28:13;13.90;99.90
4647;DHT22;2336;47.822;7.564;2023-02-22T12:30:43;13.90;99.90
4647;DHT22;2336;47.822;7.564;2023-02-22T12:33:14;13.90;99.90
4647;DHT22;2336;47.822;7.564;2023-02-22T12:35:49;13.90;99.90
4647;DHT22;2336;47.822;7.564;2023-02-22T12:38:19;13.90;99.90
4647;DHT22;2336;47.822;7.564;2023-02-22T12:40:53;14.00;99.90
4647;DHT22;2336;47.822;7.564;2023-02-22T12:43:25;14.00;99.90
4647;DHT22;2336;47.822;7.564;2023-02-22T12:46:01;14.00;99.90
4647;DHT22;2336;47.822;7.564;2023-02-22T12:48:39;14.00;99.90
4647;DHT22;2336;47.822;7.564;2023-02-22T12:51:18;14.10;99.90
4647;DHT22;2336;47.822;7.564;2023-02-22T12:53:54;14.10;99.90
4647;DHT22;2336;47.822;7.564;2023-02-22T12:56:28;14.00;99.90
4647;DHT22;2336;47.822;7.564;2023-02-22T12:59:02;14.10;99.90
4647;DHT22;2336;47.822;7.564;2023-02-22T13:01:36;14.30;99.90
4647;DHT22;2336;47.822;7.564;2023-02-22T13:04:05;14.20;99.90
4647;DHT22;2336;47.822;7.564;2023-02-22T13:06:46;14.20;99.90
4647;DHT22;2336;47.822;7.564;2023-02-22T13:12:23;14.30;99.90
4647;DHT22;2336;47.822;7.564;2023-02-22T13:15:06;14.30;99.90
4647;DHT22;2336;47.822;7.564;2023-02-22T13:17:40;14.20;99.90
4647;DHT22;2336;47.822;7.564;2023-02-22T13:20:13;14.20;99.90
4647;DHT22;2336;47.822;7.564;2023-02-22T13:22:46;14.20;99.90
4647;DHT22;2336;47.822;7.564;2023-02-22T13:25:18;14.20;99.90
4647;DHT22;2336;47.822;7.564;2023-02-22T13:27:51;14.20;99.90
4647;DHT22;2336;47.822;7.564;2023-02-22T13:30:23;14.10;99.90
4647;DHT22;2336;47.822;7.564;2023-02-22T13:33:07;14.20;99.90
4647;DHT22;2336;47.822;7.564;2023-02-22T13:35:49;14.20;99.90
4647;DHT22;2336;47.822;7.564;2023-02-22T13:38:49;14.30;99.90
4647;DHT22;2336;47.822;7.564;2023-02-22T13:50:42;14.50;99.90
4647;DHT22;2336;47.822;7.564;2023-02-22T13:53:18;14.50;99.90
4647;DHT22;2336;47.822;7.564;2023-02-22T13:55:52;14.30;99.90
4647;DHT22;2336;47.822;7.564;2023-02-22T13:58:21;14.30;99.90
4647;DHT22;2336;47.822;7.564;2023-02-22T14:00:51;14.20;99.90
4647;DHT22;2336;47.822;7.564;2023-02-22T14:03:33;14.20;99.90
4647;DHT22;2336;47.822;7.564;2023-02-22T14:06:03;14.10;99.90
4647;DHT22;2336;47.822;7.564;2023-02-22T14:08:43;14.10;99.90
4647;DHT22;2336;47.822;7.564;2023-02-22T14:14:19;14.00;99.90
4647;DHT22;2336;47.822;7.564;2023-02-22T14:20:21;14.00;99.90
4647;DHT22;2336;47.822;7.564;2023-02-22T14:22:55;14.00;99.90
4647;DHT22;2336;47.822;7.564;2023-02-22T14:25:31;14.10;99.90
4647;DHT22;2336;47.822;7.564;2023-02-22T14:27:59;14.10;99.90
4647;DHT22;2336;47.822;7.564;2023-02-22T14:30:29;13.90;99.90
4647;DHT22;2336;47.822;7.564;2023-02-22T14:32:56;13.80;99.90
4647;DHT22;2336;47.822;7.564;2023-02-22T14:35:31;13.70;99.90
4647;DHT22;2336;47.822;7.564;2023-02-22T14:38:04;13.60;99.90
4647;DHT22;2336;47.822;7.564;2023-02-22T14:40:35;13.60;99.90
4647;DHT22;2336;47.822;7.564;2023-02-22T14:43:07;13.60;99.90
4647;DHT22;2336;47.822;7.564;2023-02-22T14:45:38;13.70;99.90
4647;DHT22;2336;47.822;7.564;2023-02-22T14:48:19;13.70;99.90
4647;DHT22;2336;47.822;7.564;2023-02-22T14:50:52;13.70;99.90
4647;DHT22;2336;47.822;7.564;2023-02-22T14:53:24;13.70;99.90
4647;DHT22;2336;47.822;7.564;2023-02-22T14:55:55;13.60;99.90
4647;DHT22;2336;47.822;7.564;2023-02-22T14:58:29;13.50;99.90
4647;DHT22;2336;47.822;7.564;2023-02-22T15:00:58;13.50;99.90
4647;DHT22;2336;47.822;7.564;2023-02-22T15:03:44;13.50;99.90
4647;DHT22;2336;47.822;7.564;2023-02-22T15:06:15;13.60;99.90
4647;DHT22;2336;47.822;7.564;2023-02-22T15:08:44;13.50;99.90
4647;DHT22;2336;47.822;7.564;2023-02-22T15:11:20;13.60;99.90
4647;DHT22;2336;47.822;7.564;2023-02-22T15:13:52;13.60;99.90
4647;DHT22;2336;47.822;7.564;2023-02-22T15:16:20;13.60;99.90
4647;DHT22;2336;47.822;7.564;2023-02-22T15:18:50;13.50;99.90
4647;DHT22;2336;47.822;7.564;2023-02-22T15:21:22;13.40;99.90
4647;DHT22;2336;47.822;7.564;2023-02-22T15:23:51;13.30;99.90
4647;DHT22;2336;47.822;7.564;2023-02-22T15:26:23;13.30;99.90
4647;DHT22;2336;47.822;7.564;2023-02-22T15:28:53;13.30;99.90
4647;DHT22;2336;47.822;7.564;2023-02-22T15:31:28;13.20;99.90
4647;DHT22;2336;47.822;7.564;2023-02-22T15:33:55;13.20;99.90
4647;DHT22;2336;47.822;7.564;2023-02-22T15:36:26;13.30;99.90
4647;DHT22;2336;47.822;7.564;2023-02-22T15:38:55;13.20;99.90
4647;DHT22;2336;47.822;7.564;2023-02-22T15:41:26;13.20;99.90
4647;DHT22;2336;47.822;7.564;2023-02-22T15:44:02;13.10;99.90
4647;DHT22;2336;47.822;7.564;2023-02-22T15:46:30;13.20;99.90
4647;DHT22;2336;47.822;7.564;2023-02-22T15:49:16;13.20;99.90
4647;DHT22;2336;47.822;7.564;2023-02-22T15:51:47;13.20;99.90
4647;DHT22;2336;47.822;7.564;2023-02-22T15:54:16;13.10;99.90
4647;DHT22;2336;47.822;7.564;2023-02-22T15:56:48;13.10;99.90
4647;DHT22;2336;47.822;7.564;2023-02-22T15:59:17;13.00;99.90
4647;DHT22;2336;47.822;7.564;2023-02-22T16:01:46;13.00;99.90
4647;DHT22;2336;47.822;7.564;2023-02-22T16:04:17;13.00;99.90
4647;DHT22;2336;47.822;7.564;2023-02-22T16:06:47;12.90;99.90
4647;DHT22;2336;47.822;7.564;2023-02-22T16:09:16;12.90;99.90
4647;DHT22;2336;47.822;7.564;2023-02-22T16:11:47;12.90;99.90
4647;DHT22;2336;47.822;7.564;2023-02-22T16:14:25;12.90;99.90
4647;DHT22;2336;47.822;7.564;2023-02-22T16:17:11;12.80;99.90
4647;DHT22;2336;47.822;7.564;2023-02-22T16:19:39;12.80;99.90
4647;DHT22;2336;47.822;7.564;2023-02-22T16:22:24;12.80;99.90
4647;DHT22;2336;47.822;7.564;2023-02-22T16:24:51;12.70;99.90
4647;DHT22;2336;47.822;7.564;2023-02-22T16:27:22;12.60;99.90
4647;DHT22;2336;47.822;7.564;2023-02-22T16:30:16;12.60;99.90
4647;DHT22;2336;47.822;7.564;2023-02-22T16:32:47;12.60;99.90
4647;DHT22;2336;47.822;7.564;2023-02-22T16:35:15;12.50;99.90
4647;DHT22;2336;47.822;7.564;2023-02-22T16:37:45;12.50;99.90
4647;DHT22;2336;47.822;7.564;2023-02-22T16:40:20;12.50;99.90
4647;DHT22;2336;47.822;7.564;2023-02-22T16:42:48;12.30;99.90
4647;DHT22;2336;47.822;7.564;2023-02-22T16:45:16;12.30;99.90
4647;DHT22;2336;47.822;7.564;2023-02-22T16:47:43;12.20;99.90
4647;DHT22;2336;47.822;7.564;2023-02-22T16:50:10;12.10;99.90
4647;DHT22;2336;47.822;7.564;2023-02-22T16:52:39;12.00;99.90
4647;DHT22;2336;47.822;7.564;2023-02-22T16:55:09;12.00;99.90
4647;DHT22;2336;47.822;7.564;2023-02-22T16:57:37;11.80;99.90